Saint-Louis, Senegal
Current Conditions -  °F | °C
As of 5:00 PM on Friday 19 Dec 2014 (Local Time) from GOSS Reporting Station
Sand / Dust Storm Sand / Dust Storm  
Wind Chill: 88°   Ceiling: Unl
Heat Index: 89°   Visibility: 2.5mi
Dew Point: 64°   Wind: 9mph
Humidity: 46%   Direction: 80°E
Pressure: 29.91"   Gusts: NA
Location:  16.03°N, 16.49°W
Report Text: GOSS 191700Z 08008KT 4000 DU NSC 31/18 Q1013
Loading
Personal Weather Stations






























Interactive Weather Map New forecast layout! Learn more

10-Day Weather Forecast

Advertisements
Track Severe Weather on mobile